createdAt,value
2023-04-14T00:00:51.653Z,75629.72
2023-04-14T00:03:19.759Z,75627.69
2023-04-14T00:05:47.759Z,75621.56
2023-04-14T00:08:15.724Z,75625.63
2023-04-14T00:10:44.893Z,75617.50
2023-04-14T00:13:12.672Z,75617.50
2023-04-14T00:15:41.548Z,75621.56
2023-04-14T00:18:09.475Z,75617.50
2023-04-14T00:20:37.296Z,75617.50
2023-04-14T00:23:05.127Z,75613.41
2023-04-14T00:25:32.979Z,75609.34
2023-04-14T00:28:02.116Z,75617.50
2023-04-14T00:30:30.365Z,75625.63
2023-04-14T00:32:58.309Z,75627.69
2023-04-14T00:35:26.140Z,75621.56
2023-04-14T00:37:53.974Z,75629.72
2023-04-14T00:40:22.095Z,75625.63
2023-04-14T00:42:50.621Z,75621.56
2023-04-14T00:45:19.822Z,75625.63
2023-04-14T00:47:50.648Z,75621.56
2023-04-14T00:50:19.991Z,75609.34
2023-04-14T00:52:50.399Z,75607.28
2023-04-14T00:55:19.921Z,75605.25
2023-04-14T00:57:48.652Z,75603.22
2023-04-14T01:00:17.087Z,75603.22
2023-04-14T01:02:46.653Z,75609.34
2023-04-14T01:05:14.835Z,75609.34
2023-04-14T01:07:43.171Z,75609.34
2023-04-14T01:10:11.985Z,75607.28
2023-04-14T01:13:07.189Z,75609.34
2023-04-14T01:15:40.119Z,75605.25
2023-04-14T01:18:14.128Z,75609.34
2023-04-14T01:20:44.641Z,75607.28
2023-04-14T01:23:16.957Z,75617.50
2023-04-14T01:26:18.113Z,75621.56
2023-04-14T01:28:59.457Z,75623.59
2023-04-14T01:31:31.516Z,75631.75
2023-04-14T01:34:07.468Z,75637.88
2023-04-14T01:36:41.432Z,75654.19
2023-04-14T01:39:12.533Z,75658.25
2023-04-14T01:41:44.598Z,75662.34
2023-04-14T01:44:15.760Z,75672.53
2023-04-14T01:46:46.448Z,75680.69
2023-04-14T01:49:14.900Z,75682.72
2023-04-14T01:51:45.176Z,75682.72
2023-04-14T01:54:15.653Z,75678.63
2023-04-14T01:56:44.940Z,75699.03
2023-04-14T01:59:13.369Z,75707.19
2023-04-14T02:01:42.749Z,75703.09
2023-04-14T02:04:13.603Z,75694.94
2023-04-14T02:06:42.010Z,75707.19
2023-04-14T02:09:13.125Z,75711.25
2023-04-14T02:11:42.378Z,75719.41
2023-04-14T02:14:12.021Z,75719.41
2023-04-14T02:16:40.830Z,75719.41
2023-04-14T02:19:08.949Z,75731.66
2023-04-14T02:21:40.089Z,75721.44
2023-04-14T02:24:08.532Z,75729.59
2023-04-14T02:26:41.401Z,75741.84
2023-04-14T02:29:12.925Z,75745.91
2023-04-14T02:31:44.613Z,75760.19
2023-04-14T02:34:14.482Z,75760.19
2023-04-14T02:36:50.287Z,75766.31
2023-04-14T02:39:21.987Z,75778.53
2023-04-14T02:41:58.010Z,75792.81
2023-04-14T02:44:29.546Z,75796.88
2023-04-14T02:47:04.167Z,75807.06
2023-04-14T02:49:35.425Z,75813.19
2023-04-14T02:52:06.992Z,75821.34
2023-04-14T02:54:37.597Z,75833.56
2023-04-14T02:57:06.554Z,75849.88
2023-04-14T02:59:35.658Z,75849.88
2023-04-14T03:02:06.018Z,75853.97
2023-04-14T03:04:38.283Z,75853.97
2023-04-14T03:07:09.815Z,75856.00
2023-04-14T03:09:38.449Z,75862.13
2023-04-14T03:12:09.030Z,75862.13
2023-04-14T03:14:38.586Z,75851.91
2023-04-14T03:17:07.800Z,75847.84
2023-04-14T03:19:36.599Z,75835.63
2023-04-14T03:22:05.558Z,75837.66
2023-04-14T03:24:35.669Z,75837.66
2023-04-14T03:27:06.548Z,75837.66
2023-04-14T03:29:39.007Z,75831.53
2023-04-14T03:32:08.319Z,75833.56
2023-04-14T03:34:42.043Z,75825.41
2023-04-14T03:37:11.058Z,75829.50
2023-04-14T03:39:42.396Z,75823.38
2023-04-14T03:42:12.087Z,75827.47
2023-04-14T03:44:43.066Z,75813.19
2023-04-14T03:47:12.410Z,75821.34
2023-04-14T03:49:46.198Z,75825.41
2023-04-14T03:52:15.730Z,75825.41
2023-04-14T03:54:46.672Z,75817.25
2023-04-14T03:57:17.661Z,75813.19
2023-04-14T03:59:46.266Z,75817.25
2023-04-14T04:02:15.233Z,75819.31
2023-04-14T04:04:44.502Z,75817.25
2023-04-14T04:07:14.990Z,75813.19
2023-04-14T04:09:47.237Z,75807.06
2023-04-14T04:12:19.069Z,75807.06
2023-04-14T04:14:47.074Z,75805.03
2023-04-14T04:17:18.046Z,75805.03
2023-04-14T04:19:47.428Z,75803.00
2023-04-14T04:22:19.394Z,75813.19
2023-04-14T04:24:49.542Z,75809.13
2023-04-14T04:27:27.611Z,75800.97
2023-04-14T04:29:56.721Z,75796.88
2023-04-14T04:32:25.108Z,75788.72
2023-04-14T04:34:54.048Z,75788.72
2023-04-14T04:37:23.083Z,75770.38
2023-04-14T04:39:52.277Z,75768.34
2023-04-14T04:42:20.056Z,75764.25
2023-04-14T04:44:47.863Z,75772.41
2023-04-14T04:47:16.334Z,75772.41
2023-04-14T04:49:44.320Z,75768.34
2023-04-14T04:52:12.124Z,75772.41
2023-04-14T04:54:39.964Z,75778.53
2023-04-14T04:57:09.176Z,75784.66
2023-04-14T04:59:38.276Z,75784.66
2023-04-14T05:02:06.399Z,75782.59
2023-04-14T05:04:34.313Z,75788.72
2023-04-14T05:07:03.351Z,75784.66
2023-04-14T05:09:31.221Z,75776.50
2023-04-14T05:11:59.065Z,75772.41
2023-04-14T05:14:28.237Z,75782.59
2023-04-14T05:16:56.992Z,75784.66
2023-04-14T05:19:25.054Z,75772.41
2023-04-14T05:21:52.879Z,75766.31
2023-04-14T05:24:20.706Z,75772.41
2023-04-14T05:27:09.347Z,75770.38
2023-04-14T05:29:37.630Z,75772.41
2023-04-14T05:32:05.496Z,75768.34
2023-04-14T05:34:33.280Z,75788.72
2023-04-14T05:37:01.212Z,75788.72
2023-04-14T05:39:28.980Z,75780.56
2023-04-14T05:41:56.821Z,75780.56
2023-04-14T05:44:24.680Z,75768.34
2023-04-14T05:46:53.941Z,75758.16
2023-04-14T05:49:22.002Z,75762.22
2023-04-14T05:51:49.814Z,75750.00
2023-04-14T05:54:17.572Z,75754.06
2023-04-14T05:56:45.353Z,75760.19
2023-04-14T05:59:13.319Z,75762.22
2023-04-14T06:01:41.220Z,75743.88
2023-04-14T06:04:11.260Z,75747.94
2023-04-14T06:06:39.755Z,75754.06
2023-04-14T06:09:07.608Z,75764.25
2023-04-14T06:11:35.461Z,75768.34
2023-04-14T06:14:05.384Z,75776.50
2023-04-14T06:16:33.219Z,75768.34
2023-04-14T06:19:01.707Z,75764.25
2023-04-14T06:21:31.530Z,75762.22
2023-04-14T06:23:59.575Z,75764.25
2023-04-14T06:26:27.434Z,75770.38
2023-04-14T06:28:55.292Z,75760.19
2023-04-14T06:31:23.192Z,75760.19
2023-04-14T06:33:52.461Z,75747.94
2023-04-14T06:36:20.498Z,75750.00
2023-04-14T06:38:49.647Z,75747.94
2023-04-14T06:41:17.416Z,75747.94
2023-04-14T06:43:45.322Z,75743.88
2023-04-14T06:46:13.153Z,75743.88
2023-04-14T06:48:41.025Z,75752.03
2023-04-14T06:51:10.864Z,75739.81
2023-04-14T06:53:38.679Z,75735.72
2023-04-14T06:56:08.932Z,75711.25
2023-04-14T06:58:36.853Z,75723.50
2023-04-14T07:01:05.062Z,75735.72
2023-04-14T07:03:34.467Z,75735.72
2023-04-14T07:06:06.907Z,75725.53
2023-04-14T07:08:35.442Z,75719.41
2023-04-14T07:11:05.756Z,75717.38
2023-04-14T07:13:35.446Z,75725.53
2023-04-14T07:16:04.125Z,75717.38
2023-04-14T07:18:32.677Z,75725.53
2023-04-14T07:21:00.858Z,75723.50
2023-04-14T07:23:29.281Z,75719.41
2023-04-14T07:25:59.194Z,75723.50
2023-04-14T07:28:28.297Z,75721.44
2023-04-14T07:30:57.544Z,75727.56
2023-04-14T07:33:27.624Z,75715.34
2023-04-14T07:36:02.942Z,75711.25
2023-04-14T07:38:32.299Z,75703.09
2023-04-14T07:41:01.356Z,75694.94
2023-04-14T07:43:34.809Z,75690.88
2023-04-14T07:46:05.465Z,75694.94
2023-04-14T07:48:33.636Z,75697.00
2023-04-14T07:51:01.655Z,75703.09
2023-04-14T07:53:29.591Z,75711.25
2023-04-14T07:55:58.175Z,75709.22
2023-04-14T07:58:29.043Z,75707.19
2023-04-14T08:00:57.521Z,75709.22
2023-04-14T08:03:27.283Z,75711.25
2023-04-14T08:05:55.456Z,75715.34
2023-04-14T08:08:23.619Z,75715.34
2023-04-14T08:10:51.543Z,75721.44
2023-04-14T08:13:19.338Z,75715.34
2023-04-14T08:15:47.540Z,75705.16
2023-04-14T08:18:15.545Z,75709.22
2023-04-14T08:20:44.815Z,75707.19
2023-04-14T08:23:12.772Z,75707.19
2023-04-14T08:25:40.833Z,75694.94
2023-04-14T08:28:08.630Z,75697.00
2023-04-14T08:30:37.093Z,75709.22
2023-04-14T08:33:05.090Z,75711.25
2023-04-14T08:35:35.282Z,75711.25
2023-04-14T08:38:06.114Z,75727.56
2023-04-14T08:40:38.263Z,75723.50
2023-04-14T08:43:06.610Z,75727.56
2023-04-14T08:45:35.588Z,75723.50
2023-04-14T08:48:05.920Z,75731.66
2023-04-14T08:50:37.965Z,75743.88
2023-04-14T08:53:10.566Z,75745.91
2023-04-14T08:55:41.460Z,75747.94
2023-04-14T08:58:11.512Z,75752.03
2023-04-14T09:00:41.165Z,75739.81
2023-04-14T09:03:09.904Z,75737.75
2023-04-14T09:05:38.480Z,75743.88
2023-04-14T09:08:08.379Z,75739.81
2023-04-14T09:10:37.080Z,75747.94
2023-04-14T09:13:06.608Z,75752.03
2023-04-14T09:15:34.601Z,75750.00
2023-04-14T09:18:02.988Z,75750.00
2023-04-14T09:20:38.937Z,75743.88
2023-04-14T09:23:10.738Z,75747.94
2023-04-14T09:25:40.138Z,75750.00
2023-04-14T09:28:08.428Z,75750.00
2023-04-14T09:30:36.436Z,75739.81
2023-04-14T09:33:06.274Z,75739.81
2023-04-14T09:35:45.828Z,75743.88
2023-04-14T09:38:15.505Z,75756.09
2023-04-14T09:40:44.687Z,75752.03
2023-04-14T09:43:25.283Z,75758.16
2023-04-14T09:45:53.270Z,75747.94
2023-04-14T09:48:21.862Z,75752.03
2023-04-14T09:51:03.474Z,75754.06
2023-04-14T09:53:35.722Z,75747.94
2023-04-14T09:56:05.104Z,75743.88
2023-04-14T09:58:35.117Z,75741.84
2023-04-14T10:01:04.620Z,75754.06
2023-04-14T10:03:38.698Z,75754.06
2023-04-14T10:06:09.724Z,75756.09
2023-04-14T10:08:42.008Z,75752.03
2023-04-14T10:11:18.067Z,75754.06
2023-04-14T10:13:46.423Z,75752.03
2023-04-14T10:16:14.607Z,75752.03
2023-04-14T10:18:42.760Z,75741.84
2023-04-14T10:21:11.429Z,75752.03
2023-04-14T10:23:42.230Z,75756.09
2023-04-14T10:26:11.937Z,75745.91
2023-04-14T10:28:41.919Z,75743.88
2023-04-14T10:31:16.065Z,75735.72
2023-04-14T10:33:44.150Z,75727.56
2023-04-14T10:36:12.180Z,75727.56
2023-04-14T10:38:43.540Z,75715.34
2023-04-14T10:41:13.010Z,75713.28
2023-04-14T10:43:41.732Z,75717.38
2023-04-14T10:46:11.309Z,75711.25
2023-04-14T10:48:41.315Z,75715.34
2023-04-14T10:51:11.261Z,75709.22
2023-04-14T10:53:46.344Z,75703.09
2023-04-14T10:56:14.628Z,75711.25
2023-04-14T10:58:42.632Z,75703.09
2023-04-14T11:01:26.851Z,75701.06
2023-04-14T11:03:56.421Z,75697.00
2023-04-14T11:06:50.275Z,75694.94
2023-04-14T11:09:34.206Z,75684.75
2023-04-14T11:12:19.516Z,75690.88
2023-04-14T11:14:48.404Z,75686.78
2023-04-14T11:17:22.106Z,75686.78
2023-04-14T11:19:53.975Z,75701.06
2023-04-14T11:22:40.846Z,75690.88
2023-04-14T11:25:13.056Z,75680.69
2023-04-14T11:27:41.764Z,75670.50
2023-04-14T11:30:16.786Z,75662.34
2023-04-14T11:32:49.114Z,75662.34
2023-04-14T11:35:17.018Z,75654.19
2023-04-14T11:37:44.975Z,75652.13
2023-04-14T11:40:15.929Z,75646.03
2023-04-14T11:42:45.391Z,75654.19
2023-04-14T11:45:16.409Z,75656.22
2023-04-14T11:47:48.977Z,75650.09
2023-04-14T11:50:18.168Z,75658.25
2023-04-14T11:52:47.464Z,75654.19
2023-04-14T11:55:17.609Z,75650.09
2023-04-14T11:57:47.205Z,75650.09
2023-04-14T12:00:15.584Z,75650.09
2023-04-14T12:02:44.424Z,75637.88
2023-04-14T12:05:13.976Z,75627.69
2023-04-14T12:07:44.573Z,75623.59
2023-04-14T12:10:13.447Z,75615.44
2023-04-14T12:12:42.693Z,75605.25
2023-04-14T12:15:13.540Z,75605.25
2023-04-14T12:17:42.130Z,75601.19
2023-04-14T12:20:16.734Z,75603.22
2023-04-14T12:22:44.578Z,75588.94
2023-04-14T12:25:13.399Z,75584.88
2023-04-14T12:27:42.644Z,75572.63
2023-04-14T12:30:11.104Z,75582.84
2023-04-14T12:32:40.731Z,75576.72
2023-04-14T12:35:09.283Z,75574.69
2023-04-14T12:37:38.617Z,75570.59
2023-04-14T12:40:08.534Z,75562.44
2023-04-14T12:42:49.201Z,75568.56
2023-04-14T12:45:17.424Z,75560.41
2023-04-14T12:47:56.484Z,75564.47
2023-04-14T12:50:28.054Z,75560.41
2023-04-14T12:52:57.222Z,75558.38
2023-04-14T12:55:27.485Z,75558.38
2023-04-14T12:57:58.445Z,75560.41
2023-04-14T13:00:28.135Z,75566.53
2023-04-14T13:02:56.805Z,75562.44
2023-04-14T13:05:24.800Z,75552.25
2023-04-14T13:07:52.670Z,75540.03
2023-04-14T13:10:21.076Z,75531.88
2023-04-14T13:12:48.887Z,75525.75
2023-04-14T13:16:11.837Z,75525.75
2023-04-14T13:18:06.157Z,75523.72
2023-04-14T13:20:34.027Z,75527.78
2023-04-14T13:23:02.190Z,75513.53
2023-04-14T13:25:30.002Z,75507.41
2023-04-14T13:27:57.836Z,75515.56
2023-04-14T13:30:27.098Z,75499.25
2023-04-14T13:32:57.808Z,75491.09
2023-04-14T13:35:26.555Z,75491.09
2023-04-14T13:37:54.351Z,75478.88
2023-04-14T13:40:22.184Z,75478.88
2023-04-14T13:42:50.055Z,75487.03
2023-04-14T13:45:18.065Z,75487.03
2023-04-14T13:47:49.293Z,75476.84
2023-04-14T13:50:17.785Z,75474.78
2023-04-14T13:52:48.296Z,75468.69
2023-04-14T13:55:16.195Z,75466.63
2023-04-14T13:57:44.017Z,75458.50
2023-04-14T14:00:13.443Z,75450.34
2023-04-14T14:02:41.426Z,75462.56
2023-04-14T14:05:12.467Z,75448.28
2023-04-14T14:07:40.285Z,75460.53
2023-04-14T14:10:10.823Z,75462.56
2023-04-14T14:12:39.146Z,75466.63
2023-04-14T14:15:08.625Z,75466.63
2023-04-14T14:17:36.885Z,75472.75
2023-04-14T14:20:05.278Z,75474.78
2023-04-14T14:22:34.407Z,75478.88
2023-04-14T14:25:17.535Z,75474.78
2023-04-14T14:27:46.099Z,75478.88
2023-04-14T14:30:14.396Z,75474.78
2023-04-14T14:32:42.197Z,75474.78
2023-04-14T14:35:10.724Z,75474.78
2023-04-14T14:37:40.903Z,75468.69
2023-04-14T14:40:10.012Z,75470.72
2023-04-14T14:42:38.176Z,75466.63
2023-04-14T14:45:07.112Z,75470.72
2023-04-14T14:47:34.988Z,75470.72
2023-04-14T14:50:06.783Z,75460.53
2023-04-14T14:52:36.383Z,75472.75
2023-04-14T14:55:06.701Z,75466.63
2023-04-14T14:57:35.058Z,75460.53
2023-04-14T15:00:02.879Z,75466.63
2023-04-14T15:02:30.878Z,75462.56
2023-04-14T15:04:58.739Z,75458.50
2023-04-14T15:07:26.985Z,75450.34
2023-04-14T15:09:54.962Z,75446.25
2023-04-14T15:12:24.473Z,75450.34
2023-04-14T15:14:52.309Z,75440.13
2023-04-14T15:17:20.162Z,75436.06
2023-04-14T15:19:48.133Z,75442.19
2023-04-14T15:22:16.407Z,75434.03
2023-04-14T15:24:44.327Z,75434.03
2023-04-14T15:27:12.115Z,75434.03
2023-04-14T15:29:41.262Z,75442.19
2023-04-14T15:32:09.180Z,75446.25
2023-04-14T15:34:37.764Z,75438.09
2023-04-14T15:37:05.969Z,75429.94
2023-04-14T15:39:33.827Z,75429.94
2023-04-14T15:42:01.974Z,75440.13
2023-04-14T15:44:30.694Z,75429.94
2023-04-14T15:47:01.936Z,75434.03
2023-04-14T15:49:29.737Z,75427.91
2023-04-14T15:51:57.674Z,75425.88
2023-04-14T15:54:26.044Z,75429.94
2023-04-14T15:56:53.889Z,75434.03
2023-04-14T15:59:22.339Z,75419.75
2023-04-14T16:01:50.196Z,75425.88
2023-04-14T16:04:19.491Z,75425.88
2023-04-14T16:06:47.881Z,75419.75
2023-04-14T16:09:15.760Z,75425.88
2023-04-14T16:11:43.632Z,75413.66
2023-04-14T16:14:11.422Z,75415.69
2023-04-14T16:16:39.490Z,75413.66
2023-04-14T16:19:07.501Z,75411.59
2023-04-14T16:21:36.661Z,75411.59
2023-04-14T16:24:04.735Z,75405.50
2023-04-14T16:26:32.566Z,75401.41
2023-04-14T16:29:00.595Z,75399.38
2023-04-14T16:31:28.489Z,75395.28
2023-04-14T16:33:56.342Z,75395.28
2023-04-14T16:36:25.381Z,75393.25
2023-04-14T16:38:54.603Z,75391.22
2023-04-14T16:41:22.658Z,75387.13
2023-04-14T16:43:50.508Z,75387.13
2023-04-14T16:46:18.433Z,75381.03
2023-04-14T16:48:46.502Z,75389.19
2023-04-14T16:51:14.273Z,75385.09
2023-04-14T16:53:44.157Z,75387.13
2023-04-14T16:56:13.333Z,75381.03
2023-04-14T16:58:41.190Z,75381.03
2023-04-14T17:01:09.238Z,75387.13
2023-04-14T17:03:37.223Z,75383.06
2023-04-14T17:06:06.007Z,75379.00
2023-04-14T17:08:34.252Z,75383.06
2023-04-14T17:11:02.226Z,75379.00
2023-04-14T17:13:31.429Z,75372.88
2023-04-14T17:16:08.421Z,75364.72
2023-04-14T17:18:37.540Z,75364.72
2023-04-14T17:21:06.473Z,75362.69
2023-04-14T17:23:36.359Z,75356.56
2023-04-14T17:26:04.476Z,75348.41
2023-04-14T17:28:34.412Z,75344.34
2023-04-14T17:31:02.649Z,75348.41
2023-04-14T17:33:30.801Z,75348.41
2023-04-14T17:35:59.183Z,75348.41
2023-04-14T17:38:27.309Z,75354.53
2023-04-14T17:40:55.171Z,75348.41
2023-04-14T17:43:23.554Z,75352.50
2023-04-14T17:45:52.871Z,75344.34
2023-04-14T17:48:20.879Z,75346.38
2023-04-14T17:50:49.213Z,75334.16
2023-04-14T17:53:17.829Z,75336.19
2023-04-14T17:55:46.107Z,75332.09
2023-04-14T17:58:14.053Z,75332.09
2023-04-14T18:00:41.855Z,75332.09
2023-04-14T18:03:11.218Z,75340.25
2023-04-14T18:05:39.191Z,75340.25
2023-04-14T18:08:07.469Z,75344.34
2023-04-14T18:10:36.105Z,75332.09
2023-04-14T18:13:03.985Z,75332.09
2023-04-14T18:15:32.256Z,75334.16
2023-04-14T18:18:00.146Z,75328.03
2023-04-14T18:20:29.498Z,75334.16
2023-04-14T18:23:02.018Z,75332.09
2023-04-14T18:26:26.372Z,75323.94
2023-04-14T18:28:19.474Z,75321.91
2023-04-14T18:30:53.697Z,75321.91
2023-04-14T18:33:21.534Z,75321.91
2023-04-14T18:35:52.197Z,75319.88
2023-04-14T18:38:20.268Z,75319.88
2023-04-14T18:40:49.346Z,75317.84
2023-04-14T18:43:18.094Z,75319.88
2023-04-14T18:45:47.357Z,75319.88
2023-04-14T18:48:15.322Z,75319.88
2023-04-14T18:50:43.709Z,75319.88
2023-04-14T18:53:13.307Z,75313.75
2023-04-14T18:55:45.455Z,75315.81
2023-04-14T18:58:14.260Z,75311.72
2023-04-14T19:00:45.429Z,75311.72
2023-04-14T19:03:13.504Z,75311.72
2023-04-14T19:05:41.728Z,75311.72
2023-04-14T19:08:14.062Z,75299.50
2023-04-14T19:10:41.902Z,75303.56
2023-04-14T19:13:11.185Z,75303.56
2023-04-14T19:15:38.952Z,75311.72
2023-04-14T19:18:06.786Z,75303.56
2023-04-14T19:20:34.626Z,75309.69
2023-04-14T19:23:02.454Z,75315.81
2023-04-14T19:25:31.671Z,75303.56
2023-04-14T19:28:01.245Z,75307.66
2023-04-14T19:30:29.261Z,75311.72
2023-04-14T19:32:57.738Z,75311.72
2023-04-14T19:35:25.549Z,75313.75
2023-04-14T19:37:55.831Z,75321.91
2023-04-14T19:40:24.186Z,75317.84
2023-04-14T19:42:55.160Z,75295.41
2023-04-14T19:45:23.054Z,75315.81
2023-04-14T19:47:50.910Z,75313.75
2023-04-14T19:50:18.924Z,75309.69
2023-04-14T19:52:48.539Z,75307.66
2023-04-14T19:55:16.594Z,75323.94
2023-04-14T19:57:45.520Z,75326.00
2023-04-14T20:00:16.827Z,75323.94
2023-04-14T20:02:44.991Z,75328.03
2023-04-14T20:05:13.056Z,75328.03
2023-04-14T20:07:40.830Z,75328.03
2023-04-14T20:10:09.973Z,75313.75
2023-04-14T20:12:37.730Z,75313.75
2023-04-14T20:15:06.643Z,75311.72
2023-04-14T20:17:36.544Z,75311.72
2023-04-14T20:20:05.855Z,75321.91
2023-04-14T20:22:34.210Z,75321.91
2023-04-14T20:25:02.054Z,75326.00
2023-04-14T20:27:29.911Z,75323.94
2023-04-14T20:29:57.951Z,75323.94
2023-04-14T20:32:25.744Z,75315.81
2023-04-14T20:34:55.081Z,75307.66
2023-04-14T20:37:22.883Z,75307.66
2023-04-14T20:39:52.502Z,75315.81
2023-04-14T20:42:20.523Z,75319.88
2023-04-14T20:44:48.371Z,75319.88
2023-04-14T20:47:16.623Z,75323.94
2023-04-14T20:49:44.942Z,75323.94
2023-04-14T20:52:14.697Z,75323.94
2023-04-14T20:54:42.440Z,75311.72
2023-04-14T20:57:10.741Z,75315.81
2023-04-14T20:59:38.626Z,75311.72
2023-04-14T21:02:07.034Z,75315.81
2023-04-14T21:04:35.870Z,75307.66
2023-04-14T21:07:03.721Z,75309.69
2023-04-14T21:09:32.882Z,75295.41
2023-04-14T21:12:14.358Z,75313.75
2023-04-14T21:15:44.020Z,75313.75
2023-04-14T21:17:32.083Z,75311.72
2023-04-14T21:20:00.308Z,75311.72
2023-04-14T21:22:28.187Z,75311.72
2023-04-14T21:24:57.372Z,75303.56
2023-04-14T21:27:26.045Z,75295.41
2023-04-14T21:29:53.861Z,75283.19
2023-04-14T21:32:21.724Z,75291.34
2023-04-14T21:34:49.764Z,75287.25
2023-04-14T21:37:19.071Z,75287.25
2023-04-14T21:39:46.904Z,75289.31
2023-04-14T21:42:16.070Z,75287.25
2023-04-14T21:44:43.947Z,75289.31
2023-04-14T21:47:11.786Z,75287.25
2023-04-14T21:49:39.636Z,75287.25
2023-04-14T21:52:07.428Z,75283.19
2023-04-14T21:54:35.291Z,75289.31
2023-04-14T21:57:03.171Z,75291.34
2023-04-14T21:59:32.273Z,75291.34
2023-04-14T22:02:01.007Z,75270.97
2023-04-14T22:04:36.726Z,75279.09
2023-04-14T22:07:05.369Z,75279.09
2023-04-14T22:09:34.441Z,75285.22
2023-04-14T22:12:03.255Z,75281.16
2023-04-14T22:14:32.825Z,75281.16
2023-04-14T22:17:01.002Z,75283.19
2023-04-14T22:19:29.977Z,75283.19
2023-04-14T22:21:57.770Z,75291.34
2023-04-14T22:24:25.568Z,75291.34
2023-04-14T22:26:54.078Z,75303.56
2023-04-14T22:29:22.681Z,75295.41
2023-04-14T22:31:51.816Z,75295.41
2023-04-14T22:34:19.568Z,75291.34
2023-04-14T22:36:47.373Z,75289.31
2023-04-14T22:39:15.182Z,75291.34
2023-04-14T22:41:45.331Z,75299.50
2023-04-14T22:44:13.068Z,75297.47
2023-04-14T22:46:41.133Z,75299.50
2023-04-14T22:49:10.454Z,75307.66
2023-04-14T22:51:38.210Z,75309.69
2023-04-14T22:54:06.611Z,75311.72
2023-04-14T22:56:34.398Z,75307.66
2023-04-14T22:59:02.371Z,75313.75
2023-04-14T23:01:30.581Z,75295.41
2023-04-14T23:03:58.479Z,75297.47
2023-04-14T23:06:27.810Z,75307.66
2023-04-14T23:08:55.689Z,75313.75
2023-04-14T23:11:23.421Z,75313.75
2023-04-14T23:13:51.404Z,75307.66
2023-04-14T23:16:20.546Z,75328.03
2023-04-14T23:18:51.799Z,75334.16
2023-04-14T23:21:20.483Z,75342.28
2023-04-14T23:23:49.805Z,75338.22
2023-04-14T23:26:19.545Z,75336.19
2023-04-14T23:28:47.861Z,75328.03
2023-04-14T23:31:15.728Z,75332.09
2023-04-14T23:33:43.626Z,75332.09
2023-04-14T23:36:11.606Z,75340.25
2023-04-14T23:38:39.414Z,75332.09
2023-04-14T23:41:08.510Z,75346.38
2023-04-14T23:43:36.390Z,75346.38
2023-04-14T23:46:04.488Z,75340.25
2023-04-14T23:48:32.380Z,75346.38
2023-04-14T23:51:04.868Z,75344.34
2023-04-14T23:53:43.650Z,75356.56
2023-04-14T23:56:13.031Z,75340.25
2023-04-14T23:58:40.781Z,75348.41
